createdAt,value
2019-01-10T00:00:19.043Z,56.75
2019-01-10T00:02:52.334Z,55.00
2019-01-10T00:05:24.452Z,57.75
2019-01-10T00:07:56.522Z,56.25
2019-01-10T00:10:28.580Z,60.00
2019-01-10T00:13:00.687Z,58.25
2019-01-10T00:15:32.671Z,56.50
2019-01-10T00:18:04.622Z,57.50
2019-01-10T00:20:36.785Z,57.00
2019-01-10T00:23:08.782Z,58.25
2019-01-10T00:25:41.112Z,56.75
2019-01-10T00:28:13.064Z,54.25
2019-01-10T00:30:45.050Z,56.75
2019-01-10T00:33:16.997Z,54.00
2019-01-10T00:35:48.987Z,51.00
2019-01-10T00:38:20.943Z,56.25
2019-01-10T00:40:52.940Z,50.25
2019-01-10T00:43:24.947Z,53.75
2019-01-10T00:45:56.981Z,44.75
2019-01-10T00:48:28.954Z,52.00
2019-01-10T00:51:01.157Z,52.75
2019-01-10T00:53:33.120Z,53.75
2019-01-10T00:56:05.079Z,53.00
2019-01-10T00:58:37.028Z,50.00
2019-01-10T01:01:09.375Z,48.75
2019-01-10T01:03:41.350Z,48.50
2019-01-10T01:06:15.610Z,39.75
2019-01-10T01:08:46.891Z,51.00
2019-01-10T01:11:18.860Z,51.25
2019-01-10T01:13:50.814Z,49.50
2019-01-10T01:16:22.784Z,48.75
2019-01-10T01:18:54.780Z,49.00
2019-01-10T01:21:26.979Z,51.25
2019-01-10T01:23:58.963Z,52.00
2019-01-10T01:26:31.385Z,44.00
2019-01-10T01:29:03.479Z,37.40
2019-01-10T01:31:35.542Z,38.00
2019-01-10T01:34:07.522Z,43.80
2019-01-10T01:36:39.571Z,42.80
2019-01-10T01:39:11.524Z,37.40
2019-01-10T01:41:43.542Z,42.00
2019-01-10T01:44:15.766Z,42.00
2019-01-10T01:46:47.864Z,40.00
2019-01-10T01:49:19.872Z,39.40
2019-01-10T01:51:52.156Z,43.50
2019-01-10T01:54:25.213Z,43.20
2019-01-10T01:56:57.242Z,38.20
2019-01-10T01:59:29.242Z,42.40
2019-01-10T02:02:01.639Z,40.80
2019-01-10T02:04:33.758Z,41.40
2019-01-10T02:07:05.771Z,41.00
2019-01-10T02:09:37.759Z,39.80
2019-01-10T02:12:09.978Z,36.00
2019-01-10T02:14:42.085Z,37.80
2019-01-10T02:17:14.086Z,37.40
2019-01-10T02:19:46.076Z,36.00
2019-01-10T02:22:18.272Z,39.40
2019-01-10T02:24:50.259Z,33.40
2019-01-10T02:27:22.346Z,34.60
2019-01-10T02:29:54.333Z,32.20
2019-01-10T02:32:26.355Z,27.40
2019-01-10T02:34:58.415Z,26.60
2019-01-10T02:37:30.411Z,22.80
2019-01-10T02:40:02.392Z,19.80
2019-01-10T02:42:35.671Z,19.00
2019-01-10T02:45:13.244Z,18.60
2019-01-10T02:47:45.374Z,17.80
2019-01-10T02:50:22.167Z,18.00
2019-01-10T02:52:54.366Z,13.60
2019-01-10T02:55:26.354Z,11.20
2019-01-10T02:57:58.376Z,12.40
2019-01-10T03:00:31.545Z,13.80
2019-01-10T03:03:04.362Z,13.20
2019-01-10T03:05:36.545Z,13.80
2019-01-10T03:08:08.533Z,13.60
2019-01-10T03:10:40.525Z,11.20
2019-01-10T03:13:12.623Z,11.60
2019-01-10T03:15:44.620Z,12.00
2019-01-10T03:18:16.833Z,9.20
2019-01-10T03:20:48.812Z,12.00
2019-01-10T03:23:20.990Z,11.00
2019-01-10T03:25:52.971Z,11.60
2019-01-10T03:28:24.998Z,11.20
2019-01-10T03:30:57.182Z,9.20
2019-01-10T03:33:29.404Z,11.00
2019-01-10T03:36:01.496Z,11.60
2019-01-10T03:38:33.507Z,10.00
2019-01-10T03:41:05.716Z,9.80
2019-01-10T03:43:46.448Z,12.00
2019-01-10T03:46:11.568Z,11.20
2019-01-10T03:48:43.644Z,11.40
2019-01-10T03:51:15.630Z,11.40
2019-01-10T03:53:47.855Z,14.00
2019-01-10T03:56:19.864Z,15.60
2019-01-10T03:58:51.981Z,14.60
2019-01-10T04:01:23.972Z,15.40
2019-01-10T04:03:56.362Z,17.40
2019-01-10T04:06:28.347Z,26.00
2019-01-10T04:09:00.355Z,37.20
2019-01-10T04:11:32.462Z,40.80
2019-01-10T04:14:04.462Z,72.00
2019-01-10T04:51:11.925Z,444.60
2019-01-10T04:53:44.116Z,440.20
2019-01-10T04:56:16.105Z,418.60
2019-01-10T04:58:48.136Z,410.60
2019-01-10T05:01:20.149Z,378.20
2019-01-10T05:03:52.192Z,369.00
2019-01-10T05:06:24.213Z,349.80
2019-01-10T05:08:56.230Z,338.60
2019-01-10T05:11:28.263Z,337.60
2019-01-10T05:14:00.272Z,330.80
2019-01-10T05:16:32.312Z,319.75
2019-01-10T05:19:04.329Z,306.25
2019-01-10T05:21:36.677Z,300.25
2019-01-10T05:24:08.837Z,288.25
2019-01-10T05:26:40.844Z,284.75
2019-01-10T05:29:12.846Z,292.25
2019-01-10T05:31:44.893Z,290.00
2019-01-10T05:34:16.967Z,281.75
2019-01-10T05:36:49.004Z,273.25
2019-01-10T05:39:21.574Z,279.00
2019-01-10T05:41:53.843Z,271.25
2019-01-10T05:44:26.780Z,269.25
2019-01-10T05:46:59.105Z,270.00
2019-01-10T05:49:31.270Z,253.25
2019-01-10T05:52:03.503Z,251.50
2019-01-10T05:54:35.675Z,261.50
2019-01-10T05:57:07.741Z,249.75
2019-01-10T05:59:39.742Z,243.50
2019-01-10T06:02:11.784Z,253.25
2019-01-10T06:04:43.937Z,243.50
2019-01-10T06:07:15.963Z,235.25
2019-01-10T06:09:48.045Z,236.75
2019-01-10T06:12:20.167Z,226.25
2019-01-10T06:14:52.290Z,219.75
2019-01-10T06:17:24.311Z,225.00
2019-01-10T06:19:56.319Z,208.25
2019-01-10T06:22:28.573Z,213.75
2019-01-10T06:25:00.800Z,211.25
2019-01-10T06:27:32.788Z,215.75
2019-01-10T06:30:05.167Z,208.50
2019-01-10T06:32:37.238Z,208.25
2019-01-10T06:35:09.249Z,210.00
2019-01-10T06:37:41.238Z,213.00
2019-01-10T06:40:15.626Z,193.75
2019-01-10T06:42:47.608Z,195.75
2019-01-10T06:45:19.843Z,198.50
2019-01-10T06:47:51.901Z,199.75
2019-01-10T06:50:23.890Z,194.25
2019-01-10T06:52:56.438Z,179.25
2019-01-10T06:55:28.624Z,194.25
2019-01-10T06:58:00.631Z,186.00
2019-01-10T07:00:32.658Z,175.50
2019-01-10T07:03:04.649Z,184.75
2019-01-10T07:05:36.672Z,170.00
2019-01-10T07:08:08.660Z,170.25
2019-01-10T07:10:40.686Z,168.75
2019-01-10T07:13:12.699Z,161.00
2019-01-10T07:15:44.694Z,143.50
2019-01-10T07:18:16.671Z,143.00
2019-01-10T07:20:48.658Z,124.25
2019-01-10T07:23:20.625Z,105.25
2019-01-10T07:25:55.672Z,105.50
2019-01-10T07:28:27.656Z,103.75
2019-01-10T07:30:59.662Z,94.75
2019-01-10T07:33:32.329Z,99.00
2019-01-10T07:36:04.397Z,99.00
2019-01-10T07:38:36.479Z,90.75
2019-01-10T07:41:08.474Z,90.75
2019-01-10T07:43:40.418Z,98.50
2019-01-10T07:46:12.414Z,99.75
2019-01-10T07:48:45.769Z,89.00
2019-01-10T07:51:17.828Z,93.25
2019-01-10T07:53:50.331Z,92.25
2019-01-10T07:56:22.540Z,91.00
2019-01-10T07:58:54.469Z,91.75
2019-01-10T08:01:26.487Z,93.75
2019-01-10T08:03:58.448Z,86.00
2019-01-10T08:06:30.438Z,84.25
2019-01-10T08:09:02.426Z,77.50
2019-01-10T08:11:35.597Z,76.25
2019-01-10T08:14:08.662Z,74.25
2019-01-10T08:16:40.690Z,69.25
2019-01-10T08:19:12.652Z,66.00
2019-01-10T08:21:46.569Z,69.25
2019-01-10T08:24:19.271Z,65.25
2019-01-10T08:26:51.445Z,65.75
2019-01-10T08:29:23.409Z,63.75
2019-01-10T08:31:55.411Z,65.50
2019-01-10T08:34:27.405Z,63.75
2019-01-10T08:36:59.395Z,55.75
2019-01-10T08:39:31.360Z,66.00
2019-01-10T08:42:03.362Z,63.25
2019-01-10T08:44:35.354Z,62.75
2019-01-10T08:47:07.352Z,60.75
2019-01-10T08:49:39.330Z,59.75
2019-01-10T08:52:11.491Z,63.25
2019-01-10T08:54:43.827Z,61.50
2019-01-10T08:57:16.210Z,63.50
2019-01-10T08:59:48.263Z,57.75
2019-01-10T09:02:20.445Z,59.75
2019-01-10T09:04:52.498Z,56.75
2019-01-10T09:07:24.521Z,57.50
2019-01-10T09:09:56.483Z,56.50
2019-01-10T09:12:28.486Z,55.75
2019-01-10T09:15:00.432Z,56.00
2019-01-10T09:17:32.422Z,59.75
2019-01-10T09:20:05.190Z,56.25
2019-01-10T09:22:37.196Z,56.25
2019-01-10T09:25:09.147Z,56.50
2019-01-10T09:27:41.412Z,51.75
2019-01-10T09:30:18.618Z,51.50
2019-01-10T09:32:50.641Z,51.50
2019-01-10T09:35:22.611Z,45.50
2019-01-10T09:37:54.626Z,52.00
2019-01-10T09:40:26.567Z,55.75
2019-01-10T09:42:58.626Z,50.75
2019-01-10T09:45:30.584Z,51.75
2019-01-10T09:48:02.586Z,51.25
2019-01-10T09:50:34.732Z,49.25
2019-01-10T09:53:06.801Z,47.75
2019-01-10T09:55:38.955Z,52.00
2019-01-10T09:58:11.234Z,51.00
2019-01-10T10:00:43.199Z,48.00
2019-01-10T10:03:15.193Z,47.00
2019-01-10T10:05:47.153Z,50.00
2019-01-10T10:08:19.131Z,49.50
2019-01-10T10:10:51.074Z,49.00
2019-01-10T10:13:23.064Z,45.25
2019-01-10T10:15:55.037Z,46.50
2019-01-10T10:18:27.000Z,49.50
2019-01-10T10:20:58.954Z,47.00
2019-01-10T10:23:30.954Z,43.25
2019-01-10T10:26:02.928Z,42.00
2019-01-10T10:28:35.117Z,37.00
2019-01-10T10:31:07.100Z,29.60
2019-01-10T10:33:39.137Z,31.00
2019-01-10T10:36:11.199Z,31.40
2019-01-10T10:38:43.492Z,28.00
2019-01-10T10:41:15.504Z,26.20
2019-01-10T10:43:47.521Z,25.20
2019-01-10T10:46:19.517Z,22.20
2019-01-10T10:48:51.635Z,24.20
2019-01-10T10:51:23.773Z,26.40
2019-01-10T10:53:55.764Z,28.60
2019-01-10T10:56:28.178Z,25.60
2019-01-10T10:59:00.331Z,25.80
2019-01-10T11:01:32.298Z,27.00
2019-01-10T11:04:04.315Z,25.40
2019-01-10T11:06:36.302Z,24.40
2019-01-10T11:09:09.644Z,20.20
2019-01-10T11:11:42.739Z,21.20
2019-01-10T11:14:14.792Z,22.60
2019-01-10T11:16:46.830Z,22.40
2019-01-10T11:19:18.872Z,21.00
2019-01-10T11:21:50.903Z,23.20
2019-01-10T11:24:22.947Z,20.60
2019-01-10T11:26:54.981Z,18.00
2019-01-10T11:29:27.227Z,17.60
2019-01-10T11:31:59.240Z,16.60
2019-01-10T11:34:31.404Z,16.00
2019-01-10T11:37:03.432Z,12.00
2019-01-10T11:39:35.458Z,13.80
2019-01-10T11:42:07.590Z,12.60
2019-01-10T11:44:39.743Z,15.80
2019-01-10T11:47:11.745Z,12.80
2019-01-10T11:49:43.773Z,10.80
2019-01-10T11:52:16.180Z,14.40
2019-01-10T11:54:49.956Z,12.80
2019-01-10T11:57:22.200Z,10.20
2019-01-10T11:59:54.634Z,9.40
2019-01-10T12:02:26.631Z,11.00
2019-01-10T12:04:58.675Z,11.40
2019-01-10T12:07:30.716Z,12.40
2019-01-10T12:10:02.720Z,12.00
2019-01-10T12:12:34.746Z,13.60
2019-01-10T12:15:10.521Z,8.40
2019-01-10T12:17:42.818Z,8.20
2019-01-10T12:20:17.426Z,9.40
2019-01-10T12:22:50.434Z,7.60
2019-01-10T12:25:22.650Z,6.60
2019-01-10T12:27:55.373Z,8.00
2019-01-10T12:30:27.858Z,9.00
2019-01-10T12:33:00.050Z,9.80
2019-01-10T12:35:32.285Z,7.60
2019-01-10T12:38:04.565Z,8.80
2019-01-10T12:40:36.901Z,6.40
2019-01-10T12:43:09.123Z,7.60
2019-01-10T12:45:42.017Z,7.60
2019-01-10T12:48:14.344Z,6.40
2019-01-10T12:50:46.573Z,6.80
2019-01-10T12:53:19.049Z,6.00
2019-01-10T12:55:51.327Z,5.80
2019-01-10T12:58:23.961Z,5.20
2019-01-10T13:00:56.366Z,5.60
2019-01-10T13:03:28.976Z,4.00
2019-01-10T13:06:01.221Z,4.60
2019-01-10T13:08:33.398Z,5.60
2019-01-10T13:11:06.025Z,5.00
2019-01-10T13:13:38.217Z,5.00
2019-01-10T13:16:10.425Z,4.00
2019-01-10T13:18:42.630Z,5.40
2019-01-10T13:21:14.830Z,6.20
2019-01-10T13:23:47.010Z,5.00
2019-01-10T13:26:19.238Z,5.00
2019-01-10T13:28:51.421Z,5.60
2019-01-10T13:31:23.798Z,5.00
2019-01-10T13:33:56.120Z,4.40
2019-01-10T13:36:28.335Z,3.00
2019-01-10T13:39:00.548Z,4.60
2019-01-10T13:41:34.301Z,5.20
2019-01-10T13:44:06.550Z,4.60
2019-01-10T13:46:39.046Z,3.40
2019-01-10T13:49:11.255Z,3.00
2019-01-10T13:51:43.591Z,3.00
2019-01-10T13:54:16.311Z,4.25
2019-01-10T13:56:49.034Z,2.00
2019-01-10T13:59:21.520Z,2.00
2019-01-10T14:01:54.475Z,3.80
2019-01-10T14:04:27.727Z,3.00
2019-01-10T14:07:00.068Z,3.00
2019-01-10T14:09:32.250Z,4.00
2019-01-10T14:12:04.455Z,2.80
2019-01-10T14:14:36.668Z,2.20
2019-01-10T14:17:08.962Z,2.40
2019-01-10T14:19:41.165Z,1.80
2019-01-10T14:22:13.451Z,2.00
2019-01-10T14:24:45.738Z,1.00
2019-01-10T14:27:18.050Z,1.00
2019-01-10T14:29:50.238Z,1.00
2019-01-10T14:32:22.590Z,1.00
2019-01-10T14:34:54.761Z,1.00
2019-01-10T14:37:27.005Z,1.00
2019-01-10T14:39:59.286Z,0.80
2019-01-10T14:42:31.496Z,1.00
2019-01-10T14:45:03.676Z,1.00
2019-01-10T14:47:36.000Z,0.60
2019-01-10T14:50:10.174Z,1.00
2019-01-10T14:52:42.371Z,0.00
2019-01-10T14:55:15.355Z,0.80
2019-01-10T14:57:47.943Z,0.40
2019-01-10T15:00:22.874Z,1.00
2019-01-10T15:02:55.490Z,0.60
2019-01-10T15:05:27.658Z,1.00
2019-01-10T15:07:59.900Z,1.00
2019-01-10T15:10:32.216Z,2.00
2019-01-10T15:13:04.650Z,1.00
2019-01-10T15:15:36.822Z,1.20
2019-01-10T15:18:08.844Z,26.60
2019-01-10T15:20:40.890Z,36.80
2019-01-10T15:23:12.941Z,44.40
2019-01-10T15:25:44.964Z,41.80
2019-01-10T15:28:17.014Z,36.80
2019-01-10T15:30:49.039Z,38.20
2019-01-10T15:33:21.255Z,39.60
2019-01-10T15:35:53.287Z,37.00
2019-01-10T15:38:25.348Z,47.80
2019-01-10T15:40:57.354Z,49.00
2019-01-10T15:43:29.402Z,50.50
2019-01-10T15:46:01.501Z,53.50
2019-01-10T15:48:33.536Z,52.25
2019-01-10T15:51:05.655Z,53.00
2019-01-10T15:53:37.703Z,48.50
2019-01-10T15:56:10.087Z,53.25
2019-01-10T15:58:42.120Z,54.00
2019-01-10T16:01:14.528Z,53.50
2019-01-10T16:03:46.763Z,62.25
2019-01-10T16:06:21.436Z,59.75
2019-01-10T16:08:53.462Z,60.50
2019-01-10T16:11:25.458Z,65.50
2019-01-10T16:13:57.488Z,64.75
2019-01-10T16:16:29.486Z,65.50
2019-01-10T16:19:02.210Z,65.75
2019-01-10T16:21:34.289Z,64.75
2019-01-10T16:24:06.319Z,68.75
2019-01-10T16:26:38.336Z,67.00
2019-01-10T16:29:10.367Z,69.00
2019-01-10T16:31:42.596Z,65.75
2019-01-10T16:34:14.981Z,69.25
2019-01-10T16:36:46.963Z,61.75
2019-01-10T16:39:18.995Z,64.50
2019-01-10T16:41:51.017Z,65.00
2019-01-10T16:44:23.078Z,57.75
2019-01-10T16:46:55.202Z,54.25
2019-01-10T16:49:27.452Z,45.40
2019-01-10T16:51:59.681Z,38.20
2019-01-10T16:54:31.755Z,30.40
2019-01-10T16:57:04.008Z,30.60
2019-01-10T16:59:36.049Z,25.40
2019-01-10T17:02:08.413Z,22.20
2019-01-10T17:04:40.620Z,27.20
2019-01-10T17:07:13.038Z,31.00
2019-01-10T17:09:45.070Z,25.20
2019-01-10T17:12:17.073Z,21.60
2019-01-10T17:14:49.125Z,20.20
2019-01-10T17:17:21.156Z,22.60
2019-01-10T17:19:53.188Z,20.60
2019-01-10T17:22:25.220Z,20.20
2019-01-10T17:24:57.288Z,24.40
2019-01-10T17:27:29.336Z,21.20
2019-01-10T17:30:01.456Z,20.20
2019-01-10T17:32:33.793Z,9.20
2019-01-10T17:35:08.658Z,19.60
2019-01-10T17:37:41.133Z,19.60
2019-01-10T17:40:16.141Z,21.20
2019-01-10T17:42:48.437Z,20.20
2019-01-10T17:45:23.212Z,19.00
2019-01-10T17:47:55.332Z,19.40
2019-01-10T17:50:27.469Z,20.20
2019-01-10T17:53:00.570Z,22.20
2019-01-10T17:55:32.812Z,19.60
2019-01-10T17:58:05.826Z,17.20
2019-01-10T18:00:38.125Z,19.80
2019-01-10T18:03:10.845Z,19.00
2019-01-10T18:05:44.382Z,12.20
2019-01-10T18:08:16.747Z,15.80
2019-01-10T18:10:48.911Z,18.60
2019-01-10T18:13:21.052Z,18.00
2019-01-10T18:15:53.189Z,18.00
2019-01-10T18:18:25.324Z,17.20
2019-01-10T18:20:57.474Z,14.60
2019-01-10T18:23:29.609Z,16.40
2019-01-10T18:26:01.770Z,16.20
2019-01-10T18:28:33.903Z,19.00
2019-01-10T18:31:05.934Z,17.60
2019-01-10T18:33:38.087Z,18.00
2019-01-10T18:36:11.601Z,16.60
2019-01-10T18:38:43.727Z,14.40
2019-01-10T18:41:15.769Z,16.60
2019-01-10T18:43:47.769Z,15.80
2019-01-10T18:46:19.788Z,13.60
2019-01-10T18:48:51.806Z,15.40
2019-01-10T18:51:24.171Z,13.60
2019-01-10T18:53:57.185Z,13.20
2019-01-10T18:56:29.241Z,14.20
2019-01-10T18:59:01.630Z,12.80
2019-01-10T19:01:33.760Z,11.40
2019-01-10T19:04:06.261Z,13.20
2019-01-10T19:06:38.696Z,13.80
2019-01-10T19:09:10.905Z,12.60
2019-01-10T19:11:43.228Z,13.20
2019-01-10T19:14:15.357Z,12.20
2019-01-10T19:16:48.346Z,12.80
2019-01-10T19:19:21.564Z,14.20
2019-01-10T19:21:53.681Z,13.40
2019-01-10T19:24:25.712Z,13.40
2019-01-10T19:26:58.585Z,12.20
2019-01-10T19:29:30.592Z,12.20
2019-01-10T19:32:02.618Z,12.20
2019-01-10T19:34:34.652Z,14.80
2019-01-10T19:37:06.962Z,12.00
2019-01-10T19:39:38.974Z,10.60
2019-01-10T19:42:12.729Z,13.00
2019-01-10T19:44:44.709Z,11.00
2019-01-10T19:47:16.737Z,13.20
2019-01-10T19:49:48.847Z,10.80
2019-01-10T19:52:20.884Z,14.00
2019-01-10T19:54:52.998Z,10.60
2019-01-10T19:57:25.064Z,11.20
2019-01-10T19:59:57.560Z,7.40
2019-01-10T20:02:29.663Z,13.40
2019-01-10T20:05:02.355Z,8.60
2019-01-10T20:07:34.730Z,10.00
2019-01-10T20:10:09.385Z,11.60
2019-01-10T20:12:41.603Z,10.00
2019-01-10T20:15:13.687Z,11.40
2019-01-10T20:17:45.812Z,10.00
2019-01-10T20:20:35.593Z,10.40
2019-01-10T20:23:08.718Z,9.80
2019-01-10T20:25:40.957Z,8.60
2019-01-10T20:28:13.218Z,9.40
2019-01-10T20:30:45.425Z,8.80
2019-01-10T20:33:17.581Z,9.60
2019-01-10T20:35:49.854Z,0.00
2019-01-10T20:38:22.157Z,11.20
2019-01-10T20:40:54.660Z,11.80
2019-01-10T20:43:26.949Z,9.60
2019-01-10T20:45:59.229Z,9.20
2019-01-10T20:48:32.420Z,9.80
2019-01-10T20:51:04.578Z,7.00
2019-01-10T20:53:36.773Z,8.60
2019-01-10T20:56:09.039Z,7.00
2019-01-10T20:58:41.298Z,9.20
2019-01-10T21:01:13.714Z,9.00
2019-01-10T21:03:45.990Z,9.40
2019-01-10T21:06:18.590Z,9.60
2019-01-10T21:08:51.029Z,9.20
2019-01-10T21:11:23.304Z,7.20
2019-01-10T21:13:55.466Z,7.00
2019-01-10T21:16:27.824Z,6.80
2019-01-10T21:19:00.014Z,7.80
2019-01-10T21:21:32.289Z,7.80
2019-01-10T21:24:04.458Z,7.80
2019-01-10T21:26:36.698Z,8.00
2019-01-10T21:29:08.998Z,7.00
2019-01-10T21:31:41.158Z,8.00
2019-01-10T21:34:13.319Z,8.40
2019-01-10T21:36:45.576Z,7.20
2019-01-10T21:39:17.927Z,5.80
2019-01-10T21:41:50.182Z,9.00
2019-01-10T21:44:23.379Z,8.20
2019-01-10T21:46:55.498Z,6.60
2019-01-10T21:49:27.670Z,7.00
2019-01-10T21:51:59.803Z,7.00
2019-01-10T21:54:32.283Z,6.00
2019-01-10T21:57:04.439Z,7.20
2019-01-10T21:59:37.643Z,5.00
2019-01-10T22:02:09.978Z,6.00
2019-01-10T22:04:42.254Z,6.00
2019-01-10T22:07:14.779Z,7.20
2019-01-10T22:09:47.137Z,7.00
2019-01-10T22:12:20.378Z,5.60
2019-01-10T22:14:52.557Z,5.00
2019-01-10T22:17:25.054Z,6.00
2019-01-10T22:19:57.232Z,6.80
2019-01-10T22:22:29.370Z,6.20
2019-01-10T22:25:01.586Z,5.00
2019-01-10T22:27:34.026Z,7.80
2019-01-10T22:30:09.287Z,5.80
2019-01-10T22:32:41.464Z,5.60
2019-01-10T22:35:15.924Z,5.00
2019-01-10T22:37:48.084Z,6.00
2019-01-10T22:40:21.980Z,4.20
2019-01-10T22:42:54.547Z,5.20
2019-01-10T22:45:27.646Z,4.40
2019-01-10T22:48:00.183Z,5.00
2019-01-10T22:50:32.337Z,5.20
2019-01-10T22:53:04.582Z,5.00
2019-01-10T22:55:37.133Z,5.00
2019-01-10T22:58:09.677Z,4.60
2019-01-10T23:01:00.496Z,5.00
2019-01-10T23:03:36.769Z,5.00
2019-01-10T23:06:09.053Z,3.80
2019-01-10T23:08:44.218Z,5.00
2019-01-10T23:11:19.625Z,5.80
2019-01-10T23:13:56.517Z,4.20
2019-01-10T23:16:29.654Z,3.20
2019-01-10T23:19:01.810Z,2.80
2019-01-10T23:21:34.114Z,4.00
2019-01-10T23:24:06.246Z,4.40
2019-01-10T23:26:38.490Z,4.20
2019-01-10T23:29:10.766Z,5.20
2019-01-10T23:31:42.937Z,5.00
2019-01-10T23:34:15.085Z,4.00
2019-01-10T23:36:48.931Z,4.40
2019-01-10T23:39:21.101Z,4.20
2019-01-10T23:41:53.475Z,4.60
2019-01-10T23:44:26.083Z,5.00
2019-01-10T23:46:58.290Z,4.00
2019-01-10T23:49:30.576Z,4.00
2019-01-10T23:52:02.753Z,5.00
2019-01-10T23:54:34.911Z,3.80
2019-01-10T23:57:07.134Z,4.00
2019-01-10T23:59:39.321Z,0.00
